Terminal Aerodrome Forecast
Issued by NWS Pueblo, CO

Home | Current Version | Previous Version | Text Only | Print | Product List | Glossary On
Versions: 1 2 3 4 5 6 7 8 9 10 11 12 13 14 15 16 17 18 19 20 21 22 23 24 25 26 27 28 29 30 31 32 33 34
000
FTUS45 KPUB 031907 AAA
TAFCOS
TAF AMD
KCOS 031907Z 0319/0418 15012KT P6SM VCTS SCT050CB BKN110
      TEMPO 0319/0323 VRB20G35KT 5SM TSRA BKN040CB
     FM032300 14010KT P6SM VCTS SCT060CB BKN100
     FM040400 VRB06KT P6SM SCT080 BKN120
     FM040600 VRB05KT P6SM SCT100 BKN150=

USA.gov is the U.S. government's official web portal to all federal, state and local government web resources and services.